Time;durP1;ratioP1;P1;durP2;ratioP2;P2;SDS_P1;SDS_P2;PMS_P1;PMS_P2;Temp;Humidity;BMP_temperature;BMP_pressure;BME280_temperature;BME280_humidity;BME280_pressure;Samples;Min_cycle;Max_cycle;Signal;HPM_P1;HPM_P2
2020/12/17 00:00:59;;;;;;;30.55;19.52;;;;;;;-0.22;100.00;101457.11;1782645;80;21104;-64
2020/12/17 00:03:27;;;;;;;31.73;19.85;;;;;;;-0.23;100.00;101455.44;1773913;80;21055;-64
2020/12/17 00:05:55;;;;;;;28.10;18.70;;;;;;;-0.25;100.00;101456.81;1757760;81;20987;-64
2020/12/17 00:08:23;;;;;;;29.07;18.82;;;;;;;-0.30;100.00;101458.34;1774013;80;21172;-64
2020/12/17 00:10:51;;;;;;;35.10;19.57;;;;;;;-0.32;100.00;101461.44;1787341;79;21811;-65
2020/12/17 00:13:21;;;;;;;27.80;18.60;;;;;;;-0.32;100.00;101458.88;1778190;80;21028;-64
2020/12/17 00:15:50;;;;;;;32.35;19.70;;;;;;;-0.30;100.00;101461.37;1785897;80;21165;-65
2020/12/17 00:18:18;;;;;;;30.57;19.25;;;;;;;-0.27;100.00;101457.33;1782084;80;21148;-66
2020/12/17 00:20:46;;;;;;;33.65;20.95;;;;;;;-0.25;100.00;101461.47;1780933;80;21128;-64
2020/12/17 00:23:14;;;;;;;30.65;20.27;;;;;;;-0.24;100.00;101462.30;1780262;80;21189;-64
2020/12/17 00:25:42;;;;;;;31.50;19.40;;;;;;;-0.22;100.00;101466.90;1783385;80;20973;-63
2020/12/17 00:28:10;;;;;;;30.50;20.30;;;;;;;-0.21;100.00;101457.02;1782153;80;21197;-63
2020/12/17 00:30:39;;;;;;;30.68;20.10;;;;;;;-0.21;100.00;101458.30;1782470;80;20973;-64
2020/12/17 00:33:07;;;;;;;35.03;20.17;;;;;;;-0.19;100.00;101456.48;1782460;80;21180;-66
2020/12/17 00:35:35;;;;;;;31.17;19.15;;;;;;;-0.18;100.00;101457.31;1781817;80;21200;-65
2020/12/17 00:38:03;;;;;;;33.90;19.40;;;;;;;-0.16;100.00;101451.63;1783251;80;21102;-66
2020/12/17 00:40:31;;;;;;;28.45;19.07;;;;;;;-0.15;100.00;101452.84;1774271;80;21128;-66
2020/12/17 00:43:00;;;;;;;32.00;20.80;;;;;;;-0.15;100.00;101450.70;1785594;80;21089;-64
2020/12/17 00:45:28;;;;;;;34.50;21.20;;;;;;;-0.14;100.00;101451.10;1782921;80;21132;-65
2020/12/17 00:47:56;;;;;;;34.05;22.00;;;;;;;-0.13;100.00;101451.46;1769635;80;21288;-66
2020/12/17 00:50:24;;;;;;;39.50;23.38;;;;;;;-0.11;100.00;101447.09;1776437;80;21133;-65
2020/12/17 00:52:52;;;;;;;65.08;35.13;;;;;;;-0.12;100.00;101451.37;1784750;80;21115;-64
2020/12/17 00:55:21;;;;;;;65.08;33.98;;;;;;;-0.12;100.00;101453.93;1777872;80;21173;-66
2020/12/17 00:57:50;;;;;;;36.70;21.87;;;;;;;-0.14;100.00;101449.36;1784262;80;21176;-67
2020/12/17 01:00:19;;;;;;;59.38;32.60;;;;;;;-0.13;100.00;101453.56;1784330;79;21264;-66
2020/12/17 01:02:47;;;;;;;67.25;39.00;;;;;;;-0.13;100.00;101458.69;1786451;79;21038;-65
2020/12/17 01:05:15;;;;;;;49.15;30.52;;;;;;;-0.12;100.00;101459.52;1783575;79;21205;-66
2020/12/17 01:07:44;;;;;;;44.35;25.43;;;;;;;-0.11;100.00;101461.19;1783389;80;21108;-67
2020/12/17 01:10:12;;;;;;;60.00;30.57;;;;;;;-0.11;100.00;101462.47;1764797;80;21067;-65
2020/12/17 01:12:41;;;;;;;37.90;22.60;;;;;;;-0.10;100.00;101456.42;1757434;80;21380;-65
2020/12/17 01:15:09;;;;;;;34.85;20.62;;;;;;;-0.12;100.00;101462.90;1778679;80;21156;-66
2020/12/17 01:17:37;;;;;;;35.33;19.05;;;;;;;-0.13;100.00;101462.54;1783886;79;21114;-66
2020/12/17 01:20:05;;;;;;;33.13;20.45;;;;;;;-0.14;100.00;101458.79;1784185;80;21189;-66
2020/12/17 01:22:34;;;;;;;36.38;21.23;;;;;;;-0.16;100.00;101460.59;1784760;80;21207;-65
2020/12/17 01:25:02;;;;;;;37.38;22.67;;;;;;;-0.15;100.00;101458.40;1753311;80;21206;-66
2020/12/17 01:27:30;;;;;;;40.48;25.37;;;;;;;-0.15;100.00;101459.25;1727771;80;21183;-63
2020/12/17 01:29:58;;;;;;;39.30;23.20;;;;;;;-0.17;100.00;101458.49;1784520;80;21003;-64
2020/12/17 01:32:26;;;;;;;41.88;25.92;;;;;;;-0.17;100.00;101465.36;1773537;80;21081;-65
2020/12/17 01:34:54;;;;;;;52.80;31.45;;;;;;;-0.17;100.00;101461.52;1785282;80;21002;-64
2020/12/17 01:37:24;;;;;;;48.08;30.57;;;;;;;-0.18;100.00;101459.88;1773303;80;21170;-64
2020/12/17 01:39:52;;;;;;;36.03;22.15;;;;;;;-0.18;100.00;101459.88;1779226;80;21179;-65
2020/12/17 01:42:21;;;;;;;34.43;21.87;;;;;;;-0.17;100.00;101461.52;1756925;80;21006;-65
2020/12/17 01:44:49;;;;;;;30.82;20.12;;;;;;;-0.16;100.00;101464.44;1775652;80;21124;-65
2020/12/17 01:47:19;;;;;;;34.88;22.17;;;;;;;-0.16;100.00;101461.88;1776056;80;21069;-65
2020/12/17 01:49:47;;;;;;;33.70;21.95;;;;;;;-0.16;100.00;101469.56;1787301;80;21279;-65
2020/12/17 01:52:16;;;;;;;34.75;22.13;;;;;;;-0.15;100.00;101467.36;1775994;80;21143;-65
2020/12/17 01:54:55;;;;;;;32.03;20.88;;;;;;;-0.16;100.00;101463.16;1786405;80;21005;-65
2020/12/17 01:57:23;;;;;;;35.60;21.82;;;;;;;-0.15;100.00;101469.92;1780904;79;21248;-66
2020/12/17 01:59:51;;;;;;;35.95;22.17;;;;;;;-0.15;100.00;101466.09;1730535;80;21162;-65
2020/12/17 02:02:19;;;;;;;36.23;21.68;;;;;;;-0.14;100.00;101461.35;1727272;80;21221;-65
2020/12/17 02:04:48;;;;;;;36.00;22.67;;;;;;;-0.13;100.00;101465.56;1781460;80;21144;-65
2020/12/17 02:07:16;;;;;;;33.58;22.05;;;;;;;-0.14;100.00;101462.17;1780990;80;21137;-65
2020/12/17 02:09:46;;;;;;;37.33;23.00;;;;;;;-0.13;100.00;101458.69;1784483;80;21045;-66
2020/12/17 02:12:14;;;;;;;36.48;23.25;;;;;;;-0.14;100.00;101445.98;1777391;80;21082;-65
2020/12/17 02:14:42;;;;;;;38.45;22.45;;;;;;;-0.13;100.00;101441.22;1779052;80;21224;-64
2020/12/17 02:17:10;;;;;;;38.40;23.60;;;;;;;-0.12;100.00;101447.52;1777666;80;21157;-65
2020/12/17 02:19:39;;;;;;;33.58;21.02;;;;;;;-0.12;100.00;101446.70;1746602;81;21084;-66
2020/12/17 02:22:07;;;;;;;33.28;21.57;;;;;;;-0.13;100.00;101436.91;1779655;80;21119;-65
2020/12/17 02:24:35;;;;;;;36.33;21.65;;;;;;;-0.11;100.00;101443.25;1780105;80;21158;-65
2020/12/17 02:27:03;;;;;;;32.45;21.50;;;;;;;-0.10;100.00;101447.00;1780227;80;21190;-65
2020/12/17 02:29:31;;;;;;;34.15;21.05;;;;;;;-0.09;100.00;101445.25;1732334;80;21167;-65
2020/12/17 02:32:00;;;;;;;27.98;16.55;;;;;;;-0.09;100.00;101444.80;1780249;80;21089;-64
2020/12/17 02:34:28;;;;;;;37.35;20.95;;;;;;;-0.08;100.00;101450.75;1778900;80;21021;-65
2020/12/17 02:36:56;;;;;;;48.85;25.68;;;;;;;-0.10;100.00;101448.28;1785031;79;21101;-65
2020/12/17 02:39:25;;;;;;;33.75;19.60;;;;;;;-0.09;100.00;101442.70;1755726;80;21385;-64
2020/12/17 02:41:53;;;;;;;25.52;16.70;;;;;;;-0.12;100.00;101451.83;1784430;80;21108;-64
2020/12/17 02:44:21;;;;;;;24.02;14.70;;;;;;;-0.12;100.00;101453.11;1784142;79;21118;-64
2020/12/17 02:46:50;;;;;;;23.05;13.58;;;;;;;-0.15;100.00;101458.40;1778910;80;21119;-66
2020/12/17 02:49:18;;;;;;;22.73;14.35;;;;;;;-0.17;100.00;101457.67;1772562;80;21159;-66
2020/12/17 02:51:46;;;;;;;22.62;14.15;;;;;;;-0.19;100.00;101456.91;1788516;80;21192;-66
2020/12/17 02:54:15;;;;;;;23.45;13.83;;;;;;;-0.21;100.00;101456.19;1779823;80;21057;-66
2020/12/17 02:56:43;;;;;;;24.23;15.35;;;;;;;-0.23;100.00;101455.44;1774638;80;21020;-65
2020/12/17 02:59:11;;;;;;;24.80;15.45;;;;;;;-0.26;100.00;101450.86;1778161;80;21052;-66
2020/12/17 03:01:39;;;;;;;26.48;16.37;;;;;;;-0.27;100.00;101451.75;1783068;80;21065;-66
2020/12/17 03:04:07;;;;;;;21.68;13.70;;;;;;;-0.26;100.00;101457.27;1766055;80;21209;-65
2020/12/17 03:06:35;;;;;;;25.57;15.45;;;;;;;-0.25;100.00;101459.38;1784263;80;21165;-67
2020/12/17 03:09:05;;;;;;;23.65;15.50;;;;;;;-0.26;100.00;101455.98;1781839;80;21153;-66
2020/12/17 03:11:33;;;;;;;21.25;13.25;;;;;;;-0.26;100.00;101450.86;1777247;80;20961;-67
2020/12/17 03:14:01;;;;;;;22.25;14.87;;;;;;;-0.27;100.00;101453.03;1781963;79;21101;-66
2020/12/17 03:16:32;;;;;;;21.97;13.43;;;;;;;-0.26;100.00;101449.58;1782931;80;21238;-66
2020/12/17 03:19:01;;;;;;;22.90;15.03;;;;;;;-0.28;100.00;101442.42;1775399;80;21115;-66
2020/12/17 03:21:29;;;;;;;23.92;14.60;;;;;;;-0.30;100.00;101446.82;1783573;80;21097;-66
2020/12/17 03:23:57;;;;;;;22.70;14.40;;;;;;;-0.31;100.00;101441.30;1781458;80;20970;-66
2020/12/17 03:26:25;;;;;;;22.05;13.30;;;;;;;-0.29;100.00;101446.36;1783130;80;21147;-66
2020/12/17 03:28:54;;;;;;;21.65;14.10;;;;;;;-0.29;100.00;101443.80;1782221;80;21194;-67
2020/12/17 03:31:22;;;;;;;23.15;13.98;;;;;;;-0.31;100.00;101439.20;1754466;80;20934;-65
2020/12/17 03:33:50;;;;;;;27.27;14.47;;;;;;;-0.32;100.00;101441.39;1783149;80;21227;-65
2020/12/17 03:36:19;;;;;;;22.82;13.62;;;;;;;-0.34;100.00;101437.66;1776966;80;21088;-65
2020/12/17 03:38:48;;;;;;;24.47;15.03;;;;;;;-0.35;100.00;101432.59;1786779;79;21113;-65
2020/12/17 03:41:17;;;;;;;21.60;13.85;;;;;;;-0.36;100.00;101435.61;1745479;81;21161;-65
2020/12/17 03:43:45;;;;;;;26.10;14.28;;;;;;;-0.38;100.00;101431.05;1757103;80;21219;-66
2020/12/17 03:46:13;;;;;;;25.70;15.40;;;;;;;-0.38;100.00;101428.48;1748524;81;20957;-65
2020/12/17 03:48:41;;;;;;;21.52;13.95;;;;;;;-0.36;100.00;101433.51;1752248;81;21175;-65
2020/12/17 03:51:10;;;;;;;31.48;18.50;;;;;;;-0.37;100.00;101430.13;1751618;80;21246;-66
2020/12/17 03:53:38;;;;;;;28.73;17.17;;;;;;;-0.38;100.00;101427.63;1750909;81;21208;-66
2020/12/17 03:56:06;;;;;;;28.20;17.02;;;;;;;-0.40;100.00;101423.88;1751964;80;21041;-67
2020/12/17 03:58:34;;;;;;;28.02;16.30;;;;;;;-0.41;100.00;101425.26;1753259;81;20993;-68
2020/12/17 04:01:02;;;;;;;24.35;15.65;;;;;;;-0.42;100.00;101424.41;1752620;80;21171;-67
2020/12/17 04:03:30;;;;;;;26.23;16.00;;;;;;;-0.43;100.00;101416.36;1750955;80;21108;-68
2020/12/17 04:05:58;;;;;;;26.70;16.62;;;;;;;-0.41;100.00;101422.23;1753811;80;21197;-67
2020/12/17 04:08:27;;;;;;;23.60;15.85;;;;;;;-0.40;100.00;101423.88;1756303;80;21338;-67
2020/12/17 04:10:55;;;;;;;26.75;17.57;;;;;;;-0.38;100.00;101429.77;1746749;81;21507;-67
2020/12/17 04:13:23;;;;;;;26.70;16.48;;;;;;;-0.39;100.00;101430.65;1754393;81;21164;-67
2020/12/17 04:15:51;;;;;;;23.90;15.38;;;;;;;-0.38;100.00;101436.17;1751253;81;21153;-67
2020/12/17 04:18:20;;;;;;;25.15;15.20;;;;;;;-0.37;100.00;101442.11;1755828;80;21219;-66
2020/12/17 04:20:48;;;;;;;27.37;16.57;;;;;;;-0.37;100.00;101443.39;1756070;80;21073;-67
2020/12/17 04:23:16;;;;;;;26.48;15.78;;;;;;;-0.37;100.00;101442.94;1748230;81;21747;-67
2020/12/17 04:25:44;;;;;;;26.42;15.63;;;;;;;-0.37;100.00;101437.81;1753225;80;21208;-64
2020/12/17 04:28:12;;;;;;;28.83;17.95;;;;;;;-0.35;100.00;101441.09;1751684;80;21160;-66
2020/12/17 04:30:40;;;;;;;25.52;16.45;;;;;;;-0.36;100.00;101439.45;1755761;81;21409;-60
2020/12/17 04:33:08;;;;;;;29.20;17.70;;;;;;;-0.36;100.00;101442.02;1750219;81;21139;-64
2020/12/17 04:35:37;;;;;;;30.12;18.35;;;;;;;-0.38;100.00;101440.01;1755214;80;21100;-63
2020/12/17 04:38:05;;;;;;;29.20;18.25;;;;;;;-0.39;100.00;101431.93;1758014;80;21147;-64
2020/12/17 04:40:33;;;;;;;31.73;17.75;;;;;;;-0.39;100.00;101442.17;1785633;80;21159;-64
2020/12/17 04:43:01;;;;;;;33.80;19.82;;;;;;;-0.39;100.00;101444.73;1777899;80;21213;-61
2020/12/17 04:45:30;;;;;;;33.23;19.00;;;;;;;-0.39;100.00;101441.36;1787709;79;21046;-62
2020/12/17 04:47:59;;;;;;;32.38;20.30;;;;;;;-0.37;100.00;101449.34;1774188;80;21128;-65
2020/12/17 04:50:27;;;;;;;35.25;21.97;;;;;;;-0.39;100.00;101448.58;1732035;80;21069;-61
2020/12/17 04:52:55;;;;;;;34.18;20.68;;;;;;;-0.39;100.00;101444.73;1785696;80;21105;-63
2020/12/17 04:55:25;;;;;;;33.35;20.72;;;;;;;-0.37;100.00;101454.92;1757083;79;21437;-63
2020/12/17 04:57:53;;;;;;;37.98;22.40;;;;;;;-0.39;100.00;101457.55;1783367;80;21084;-67
2020/12/17 05:00:21;;;;;;;31.73;20.17;;;;;;;-0.39;100.00;101452.42;1783236;80;21202;-67
2020/12/17 05:02:50;;;;;;;29.95;18.90;;;;;;;-0.40;100.00;101456.36;1782993;80;20946;-63
2020/12/17 05:05:19;;;;;;;35.80;20.92;;;;;;;-0.39;100.00;101456.72;1755898;80;21134;-62
2020/12/17 05:07:47;;;;;;;28.80;18.62;;;;;;;-0.40;100.00;101463.59;1782467;80;21372;-63
2020/12/17 05:10:17;;;;;;;31.82;19.32;;;;;;;-0.39;100.00;101463.13;1787354;79;21570;-66
2020/12/17 05:12:45;;;;;;;34.15;22.15;;;;;;;-0.37;100.00;101469.02;1786539;80;21179;-62
2020/12/17 05:15:14;;;;;;;35.30;20.57;;;;;;;-0.37;100.00;101470.29;1781223;80;21181;-62
2020/12/17 05:17:48;;;;;;;35.83;21.17;;;;;;;-0.37;100.00;101474.95;1780284;80;21002;-65
2020/12/17 05:20:17;;;;;;;33.05;21.02;;;;;;;-0.35;100.00;101471.84;1778905;80;21392;-62
2020/12/17 05:22:46;;;;;;;35.40;20.45;;;;;;;-0.34;100.00;101477.78;1782153;80;21186;-62
2020/12/17 05:25:17;;;;;;;32.60;20.97;;;;;;;-0.34;100.00;101481.20;1780866;80;21143;-61
2020/12/17 05:27:45;;;;;;;35.88;22.32;;;;;;;-0.35;100.00;101483.37;1747238;80;21467;-65
2020/12/17 05:30:13;;;;;;;36.83;22.05;;;;;;;-0.34;100.00;101484.19;1756041;80;21244;-60
2020/12/17 05:32:41;;;;;;;37.20;21.55;;;;;;;-0.33;100.00;101484.13;1781444;80;21361;-61
2020/12/17 05:35:14;;;;;;;40.30;22.65;;;;;;;-0.31;100.00;101483.58;1705514;80;21176;-65
2020/12/17 05:37:42;;;;;;;43.98;25.10;;;;;;;-0.30;100.00;101489.09;1785670;80;21123;-64
2020/12/17 05:40:12;;;;;;;44.35;24.27;;;;;;;-0.32;100.00;101488.34;1738146;80;21138;-60
2020/12/17 05:42:41;;;;;;;39.50;25.02;;;;;;;-0.31;100.00;101490.44;1784519;80;20976;-64
2020/12/17 05:45:26;;;;;;;41.10;24.55;;;;;;;-0.31;100.00;101491.26;1759189;80;21375;-59
2020/12/17 05:48:17;;;;;;;41.45;23.65;;;;;;;-0.31;100.00;101487.41;1789016;80;21090;-60
2020/12/17 05:50:56;;;;;;;;;;;;;;;-0.31;100.00;101485.31;1769244;80;21120;-64
2020/12/17 05:53:30;;;;;;;39.23;24.15;;;;;;;-0.32;100.00;101489.62;1786829;80;20273;-60
2020/12/17 05:56:04;;;;;;;40.35;23.77;;;;;;;-0.32;100.00;101492.64;1755280;80;21009;-60
2020/12/17 05:58:46;;;;;;;37.40;24.00;;;;;;;-0.31;100.00;101490.44;1784832;80;21620;-60
2020/12/17 06:01:17;;;;;;;35.92;22.65;;;;;;;-0.29;100.00;101500.98;1778941;80;21535;-65
2020/12/17 06:03:45;;;;;;;35.30;23.60;;;;;;;-0.29;100.00;101502.27;1784302;80;21255;-65
2020/12/17 06:06:14;;;;;;;34.83;22.52;;;;;;;-0.27;100.00;101502.99;1771489;80;20959;-60
2020/12/17 06:08:42;;;;;;;37.88;23.10;;;;;;;-0.25;100.00;101510.16;1780851;80;21112;-63
2020/12/17 06:11:12;;;;;;;32.30;21.20;;;;;;;-0.23;100.00;101508.78;1783332;80;21990;-63
2020/12/17 06:13:42;;;;;;;36.17;20.70;;;;;;;-0.21;100.00;101508.26;1784446;80;21598;-62
2020/12/17 06:16:11;;;;;;;33.08;22.22;;;;;;;-0.20;100.00;101505.23;1737820;81;21247;-61
2020/12/17 06:18:56;;;;;;;33.55;21.33;;;;;;;-0.19;100.00;101505.17;1755143;81;21041;-61
2020/12/17 06:21:25;;;;;;;39.98;24.20;;;;;;;-0.18;100.00;101509.38;1745769;81;21069;-63
2020/12/17 06:23:57;;;;;;;33.73;20.85;;;;;;;-0.17;100.00;101512.77;1750195;81;21383;-60
2020/12/17 06:26:25;;;;;;;40.60;22.00;;;;;;;-0.15;100.00;101517.34;1785432;80;21243;-64
2020/12/17 06:28:54;;;;;;;36.20;22.17;;;;;;;-0.13;100.00;101515.53;1778271;79;21100;-60
2020/12/17 06:31:26;;;;;;;34.40;22.32;;;;;;;-0.11;100.00;101509.42;1778920;80;20943;-65
2020/12/17 06:34:06;;;;;;;34.50;22.80;;;;;;;-0.08;100.00;101510.97;1787192;79;21524;-64
2020/12/17 06:36:39;;;;;;;35.70;22.82;;;;;;;-0.07;100.00;101510.91;1779018;80;21386;-60
2020/12/17 06:39:07;;;;;;;40.12;24.30;;;;;;;-0.04;100.00;101517.16;1787347;79;21157;-60
2020/12/17 06:41:36;;;;;;;33.92;21.07;;;;;;;-0.02;100.00;101510.66;1762962;80;21128;-64
2020/12/17 06:44:28;;;;;;;34.40;22.02;;;;;;;0.01;100.00;101515.62;1780148;79;21145;-59
2020/12/17 06:46:58;;;;;;;31.12;19.75;;;;;;;0.03;100.00;101510.39;1780288;79;21066;-59
2020/12/17 06:49:30;;;;;;;32.42;20.32;;;;;;;0.03;100.00;101512.50;1778903;79;21189;-61
2020/12/17 06:52:06;;;;;;;31.95;20.37;;;;;;;0.02;100.00;101512.13;1783487;80;21058;-67
2020/12/17 06:54:39;;;;;;;31.82;20.05;;;;;;;0.03;100.00;101507.38;1786449;79;21007;-66
2020/12/17 06:57:16;;;;;;;30.92;19.73;;;;;;;0.04;100.00;101506.48;1780071;79;21758;-66
2020/12/17 07:00:07;;;;;;;29.25;17.82;;;;;;;0.04;100.00;101503.06;1763123;80;21033;-66
2020/12/17 07:02:41;;;;;;;35.05;20.00;;;;;;;0.05;100.00;101496.59;1785645;80;21189;-65
2020/12/17 07:05:32;;;;;;;31.77;20.48;;;;;;;0.07;100.00;101504.19;1786655;79;21133;-65
2020/12/17 07:08:00;;;;;;;31.70;20.08;;;;;;;0.08;100.00;101504.12;1778966;80;20945;-63
2020/12/17 07:10:30;;;;;;;29.35;18.75;;;;;;;0.11;100.00;101504.38;1782534;80;21188;-64
2020/12/17 07:12:58;;;;;;;29.82;18.90;;;;;;;0.13;100.00;101505.96;1775277;80;21555;-58
2020/12/17 07:15:36;;;;;;;32.95;21.27;;;;;;;0.15;100.00;101505.86;1788861;79;21209;-60
2020/12/17 07:18:25;;;;;;;32.38;20.77;;;;;;;0.18;100.00;101508.27;1782137;79;21026;-63
2020/12/17 07:21:04;;;;;;;29.35;17.82;;;;;;;0.21;100.00;101505.08;1788238;79;21065;-63
2020/12/17 07:23:37;;;;;;;29.35;18.90;;;;;;;0.24;100.00;101512.61;1782987;80;21200;-57
2020/12/17 07:26:13;;;;;;;25.77;16.37;;;;;;;0.26;100.00;101506.55;1790674;80;21165;-56
2020/12/17 07:28:42;;;;;;;29.18;19.37;;;;;;;0.27;100.00;101510.34;1784479;79;21257;-56
2020/12/17 07:31:16;;;;;;;31.10;18.60;;;;;;;0.29;100.00;101511.52;1758449;80;21252;-56
2020/12/17 07:33:44;;;;;;;25.88;15.72;;;;;;;0.31;100.00;101510.99;1780295;79;21188;-55
2020/12/17 07:36:13;;;;;;;23.50;16.48;;;;;;;0.33;100.00;101511.25;1788417;79;21125;-56
2020/12/17 07:38:41;;;;;;;26.85;17.42;;;;;;;0.33;100.00;101507.87;1784340;79;21155;-56
2020/12/17 07:41:26;;;;;;;32.98;20.35;;;;;;;0.32;100.00;101512.17;1789206;80;21386;-61
2020/12/17 07:43:54;;;;;;;33.98;20.10;;;;;;;0.32;100.00;101512.64;1785593;79;21022;-55
2020/12/17 07:46:40;;;;;;;30.92;18.05;;;;;;;0.33;100.00;101509.15;1789175;80;21097;-55
2020/12/17 07:49:25;;;;;;;28.35;18.62;;;;;;;0.36;100.00;101515.39;1780224;79;21173;-55
2020/12/17 07:51:54;;;;;;;31.60;19.98;;;;;;;0.42;100.00;101516.34;1780471;79;21104;-55
2020/12/17 07:54:29;;;;;;;31.95;19.17;;;;;;;0.49;100.00;101516.34;1751826;80;22090;-55
2020/12/17 07:57:00;;;;;;;25.40;15.85;;;;;;;0.56;100.00;101518.11;1789444;80;21147;-54
2020/12/17 07:59:28;;;;;;;28.92;18.15;;;;;;;0.61;100.00;101523.36;1779253;79;21018;-55
2020/12/17 08:02:05;;;;;;;26.35;15.75;;;;;;;0.65;100.00;101524.02;1783865;80;21153;-55
2020/12/17 08:04:33;;;;;;;22.87;14.35;;;;;;;0.66;100.00;101531.62;1779707;79;21074;-55
2020/12/17 08:07:08;;;;;;;23.25;14.70;;;;;;;0.68;100.00;101529.80;1780857;80;21200;-55
2020/12/17 08:09:38;;;;;;;21.82;13.85;;;;;;;0.67;100.00;101529.41;1782858;79;21228;-55
2020/12/17 08:12:09;;;;;;;21.80;14.68;;;;;;;0.68;100.00;101530.23;1788990;79;21098;-55
2020/12/17 08:14:37;;;;;;;;;;;;;;;0.70;100.00;101524.11;1782817;79;21022;-55
2020/12/17 08:17:08;;;;;;;26.93;17.62;;;;;;;0.76;100.00;101526.80;1784461;79;20274;-55
2020/12/17 08:19:37;;;;;;;135.72;87.37;;;;;;;0.79;100.00;101525.77;1776718;80;26991;-55
2020/12/17 08:22:05;;;;;;;34.05;21.25;;;;;;;0.80;100.00;101524.42;1773802;80;20962;-55
2020/12/17 08:24:33;;;;;;;22.48;15.30;;;;;;;0.84;100.00;101517.38;1725378;80;21117;-55
2020/12/17 08:27:01;;;;;;;19.70;13.32;;;;;;;0.87;100.00;101517.16;1776160;80;21107;-54
2020/12/17 08:29:31;;;;;;;17.95;11.03;;;;;;;0.88;100.00;101518.84;1771901;80;21145;-54
2020/12/17 08:31:59;;;;;;;19.73;12.65;;;;;;;0.88;100.00;101517.55;1749426;80;21414;-55
2020/12/17 08:34:27;;;;;;;19.17;11.45;;;;;;;0.85;100.00;101516.45;1768234;80;21171;-55
2020/12/17 08:36:55;;;;;;;22.65;13.25;;;;;;;0.83;100.00;101518.27;1778206;80;21139;-55
2020/12/17 08:39:24;;;;;;;17.45;11.38;;;;;;;0.82;100.00;101512.30;1781222;80;21020;-55
2020/12/17 08:41:54;;;;;;;15.03;11.85;;;;;;;0.83;100.00;101519.55;1773551;80;21197;-55
2020/12/17 08:44:29;;;;;;;19.62;16.42;;;;;;;0.81;100.00;101513.69;1780578;80;21467;-54
2020/12/17 08:47:06;;;;;;;15.98;12.13;;;;;;;0.79;100.00;101521.92;1756310;80;38522;-54
2020/12/17 08:49:34;;;;;;;15.38;11.55;;;;;;;0.81;100.00;101513.69;1763264;80;21238;-55
2020/12/17 08:52:02;;;;;;;13.25;9.43;;;;;;;0.83;100.00;101505.42;1780979;79;21066;-55
2020/12/17 08:54:36;;;;;;;13.38;10.20;;;;;;;0.86;100.00;101511.21;1783378;79;21109;-55
2020/12/17 08:57:08;;;;;;;11.40;8.60;;;;;;;0.86;100.00;101505.25;1766924;80;21357;-55
2020/12/17 08:59:36;;;;;;;11.90;8.45;;;;;;;0.88;100.00;101509.39;1752221;80;21163;-54
2020/12/17 09:02:04;;;;;;;11.70;8.93;;;;;;;0.88;100.00;101510.67;1749555;81;21451;-54
2020/12/17 09:04:33;;;;;;;13.98;8.58;;;;;;;0.86;100.00;101508.64;1754017;80;21018;-54
2020/12/17 09:07:01;;;;;;;11.10;7.92;;;;;;;0.84;100.00;101510.48;1728660;80;21534;-55
2020/12/17 09:09:31;;;;;;;13.62;10.20;;;;;;;0.83;100.00;101513.12;1768082;80;21631;-55
2020/12/17 09:12:01;;;;;;;14.03;10.48;;;;;;;0.82;100.00;101514.05;1777898;79;21519;-55
2020/12/17 09:14:30;;;;;;;13.50;10.00;;;;;;;0.82;100.00;101521.29;1755052;80;21045;-54
2020/12/17 09:17:10;;;;;;;18.00;13.15;;;;;;;0.80;100.00;101522.31;1779794;80;21139;-54
2020/12/17 09:19:48;;;;;;;26.77;20.60;;;;;;;0.81;100.00;101523.95;1849346;75;28514;-54
2020/12/17 09:22:21;;;;;;;29.60;23.38;;;;;;;0.79;100.00;101516.79;1840443;75;21624;-55
2020/12/17 09:24:54;;;;;;;24.47;18.07;;;;;;;0.81;100.00;101514.52;1837530;77;21433;-55
2020/12/17 09:27:28;;;;;;;24.52;18.82;;;;;;;0.80;100.00;101509.48;1824351;77;21280;-55
2020/12/17 09:30:17;;;;;;;17.73;12.88;;;;;;;0.78;100.00;101508.73;1841935;77;21447;-55
2020/12/17 09:32:55;;;;;;;16.57;10.10;;;;;;;0.75;100.00;101504.59;1822850;77;20927;-54
2020/12/17 09:35:29;;;;;;;17.05;10.80;;;;;;;0.69;100.00;101500.66;1838474;77;21010;-54
2020/12/17 09:38:12;;;;;;;16.15;10.25;;;;;;;0.65;100.00;101499.64;1828958;77;21791;-54
2020/12/17 09:40:45;;;;;;;14.95;10.58;;;;;;;0.62;100.00;101490.37;1841324;77;21019;-54
2020/12/17 09:43:16;;;;;;;18.92;13.45;;;;;;;0.64;100.00;101485.13;1824281;77;20969;-56
2020/12/17 09:45:47;;;;;;;27.58;22.10;;;;;;;0.67;100.00;101485.78;1849565;77;21113;-56
2020/12/17 09:48:20;;;;;;;21.05;13.18;;;;;;;0.69;100.00;101473.70;1845753;77;21002;-57
2020/12/17 09:51:03;;;;;;;19.27;12.95;;;;;;;0.71;100.00;101470.58;1787860;79;21374;-56
2020/12/17 09:53:38;;;;;;;13.35;9.48;;;;;;;0.73;100.00;101468.77;1786342;79;21960;-55
2020/12/17 09:56:12;;;;;;;12.23;8.90;;;;;;;0.73;100.00;101453.83;1787410;80;21199;-54
2020/12/17 09:58:44;;;;;;;14.30;10.58;;;;;;;0.75;100.00;101452.44;1786409;78;21053;-54
2020/12/17 10:01:13;;;;;;;13.98;10.82;;;;;;;0.75;100.00;101449.41;1795377;79;21077;-55
2020/12/17 10:03:41;;;;;;;11.80;8.85;;;;;;;0.77;100.00;101445.48;1790106;79;21205;-55
2020/12/17 10:06:09;;;;;;;10.75;7.22;;;;;;;0.79;100.00;101448.77;1789418;79;21031;-54
2020/12/17 10:08:37;;;;;;;10.68;8.08;;;;;;;0.81;100.00;101449.06;1792078;79;21030;-54
2020/12/17 10:11:06;;;;;;;11.38;7.90;;;;;;;0.81;100.00;101447.78;1790513;79;21186;-54
2020/12/17 10:13:36;;;;;;;13.03;9.50;;;;;;;0.83;100.00;101447.21;1791781;78;21132;-55
2020/12/17 10:16:04;;;;;;;19.57;14.28;;;;;;;0.82;100.00;101446.03;1784521;80;22250;-54
2020/12/17 10:18:32;;;;;;;21.27;15.88;;;;;;;0.79;100.00;101457.76;1795843;78;20962;-54
2020/12/17 10:21:01;;;;;;;29.70;24.07;;;;;;;0.77;100.00;101457.86;1793327;78;21155;-54
2020/12/17 10:23:29;;;;;;;18.45;13.55;;;;;;;0.73;100.00;101461.06;1788663;79;21136;-55
2020/12/17 10:25:57;;;;;;;14.87;9.60;;;;;;;0.71;100.00;101462.88;1789292;79;21110;-55
2020/12/17 10:28:26;;;;;;;12.55;8.55;;;;;;;0.73;100.00;101458.95;1785630;79;21210;-55
2020/12/17 10:30:56;;;;;;;22.52;13.35;;;;;;;0.74;100.00;101468.30;1787563;80;21594;-55
2020/12/17 10:33:24;;;;;;;16.80;10.03;;;;;;;0.78;100.00;101474.08;1779351;79;21131;-57
2020/12/17 10:35:52;;;;;;;13.28;8.43;;;;;;;0.82;100.00;101471.70;1799452;78;21012;-56
2020/12/17 10:38:20;;;;;;;11.83;8.90;;;;;;;0.83;100.00;101461.33;1783109;79;21013;-56
2020/12/17 10:40:49;;;;;;;11.48;7.50;;;;;;;0.82;100.00;101456.30;1786981;80;21287;-57
2020/12/17 10:43:17;;;;;;;12.03;7.08;;;;;;;0.83;100.00;101458.77;1788567;78;20983;-56
2020/12/17 10:45:45;;;;;;;8.55;6.22;;;;;;;0.82;100.00;101457.58;1777361;79;21221;-56
2020/12/17 10:48:14;;;;;;;12.00;7.78;;;;;;;0.79;100.00;101456.02;1791920;78;21037;-55
2020/12/17 10:50:42;;;;;;;9.83;6.87;;;;;;;0.73;100.00;101449.98;1782472;78;21597;-55
2020/12/17 10:53:10;;;;;;;27.30;19.87;;;;;;;0.70;100.00;101450.97;1782684;80;21194;-56
2020/12/17 10:55:38;;;;;;;34.27;25.82;;;;;;;0.64;100.00;101449.22;1770869;79;20989;-56
2020/12/17 10:58:07;;;;;;;28.10;20.62;;;;;;;0.60;100.00;101444.72;1779566;79;21118;-56
2020/12/17 11:00:35;;;;;;;20.17;17.40;;;;;;;0.56;100.00;101447.55;1776719;79;21108;-57
2020/12/17 11:03:05;;;;;;;16.07;11.85;;;;;;;0.52;100.00;101449.93;1767962;79;20965;-57
2020/12/17 11:05:36;;;;;;;15.18;11.50;;;;;;;0.49;100.00;101453.49;1777320;79;21445;-56
2020/12/17 11:08:05;;;;;;;12.15;8.65;;;;;;;0.47;100.00;101455.33;1783019;79;20984;-57
2020/12/17 11:10:33;;;;;;;12.18;8.58;;;;;;;0.45;100.00;101450.73;1779273;79;20925;-57
2020/12/17 11:13:03;;;;;;;12.15;7.08;;;;;;;0.41;100.00;101447.98;1774378;79;21589;-57
2020/12/17 11:15:31;;;;;;;12.58;7.20;;;;;;;0.36;100.00;101455.13;1775956;79;21127;-58
2020/12/17 11:18:00;;;;;;;16.57;9.50;;;;;;;0.31;100.00;101455.39;1777983;79;22156;-59
2020/12/17 11:20:28;;;;;;;12.20;8.53;;;;;;;0.28;100.00;101449.61;1779031;79;21016;-58